createdAt,value
2019-05-26T00:04:13.470Z,14.32
2019-05-26T00:09:08.802Z,14.32
2019-05-26T00:14:04.832Z,14.33
2019-05-26T00:19:01.647Z,14.28
2019-05-26T00:23:57.146Z,14.29
2019-05-26T00:28:53.067Z,14.20
2019-05-26T00:33:49.197Z,13.97
2019-05-26T00:38:45.962Z,14.00
2019-05-26T00:43:41.881Z,13.86
2019-05-26T00:48:38.242Z,13.85
2019-05-26T00:53:34.224Z,13.81
2019-05-26T00:58:30.859Z,13.93
2019-05-26T01:03:26.410Z,13.75
2019-05-26T01:08:22.135Z,13.72
2019-05-26T01:13:17.708Z,13.54
2019-05-26T01:18:13.445Z,13.60
2019-05-26T01:23:09.205Z,13.65
2019-05-26T01:28:04.783Z,13.49
2019-05-26T01:33:00.583Z,13.42
2019-05-26T01:37:58.053Z,13.35
2019-05-26T01:42:53.530Z,13.35
2019-05-26T01:47:49.450Z,13.39
2019-05-26T01:52:45.370Z,13.42
2019-05-26T01:57:41.366Z,13.42
2019-05-26T02:02:37.860Z,13.39
2019-05-26T02:07:33.950Z,13.33
2019-05-26T02:12:30.072Z,13.35
2019-05-26T02:17:26.403Z,13.38
2019-05-26T02:22:21.970Z,13.33
2019-05-26T02:27:18.136Z,13.42
2019-05-26T02:32:14.171Z,13.33
2019-05-26T02:37:09.957Z,13.39
2019-05-26T02:42:06.971Z,13.25
2019-05-26T02:47:02.528Z,13.30
2019-05-26T02:51:58.312Z,13.23
2019-05-26T02:56:54.124Z,13.08
2019-05-26T03:02:02.115Z,13.00
2019-05-26T03:06:49.451Z,12.91
2019-05-26T03:11:45.436Z,12.70
2019-05-26T03:16:42.900Z,12.73
2019-05-26T03:21:38.454Z,12.70
2019-05-26T03:26:34.436Z,12.73
2019-05-26T03:31:30.293Z,12.68
2019-05-26T03:36:25.993Z,12.73
2019-05-26T03:41:21.897Z,12.58
2019-05-26T03:46:18.308Z,12.60
2019-05-26T03:51:14.485Z,12.60
2019-05-26T03:56:10.521Z,12.55
2019-05-26T04:01:06.921Z,12.58
2019-05-26T04:06:02.894Z,12.54
2019-05-26T04:10:58.719Z,12.73
2019-05-26T04:15:54.689Z,12.82
2019-05-26T04:20:51.573Z,12.80
2019-05-26T04:25:48.266Z,12.82
2019-05-26T04:30:43.797Z,12.87
2019-05-26T04:35:39.734Z,12.97
2019-05-26T04:40:36.055Z,12.91
2019-05-26T04:45:32.143Z,13.08
2019-05-26T04:50:28.446Z,13.31
2019-05-26T04:55:25.261Z,13.39
2019-05-26T05:00:21.747Z,13.81
2019-05-26T05:05:18.365Z,14.14
2019-05-26T05:10:14.986Z,14.53
2019-05-26T05:15:10.944Z,14.54
2019-05-26T05:20:06.675Z,14.59
2019-05-26T05:25:02.737Z,14.92
2019-05-26T05:29:59.099Z,15.09
2019-05-26T05:34:55.450Z,15.29
2019-05-26T05:39:51.758Z,15.76
2019-05-26T05:44:47.929Z,16.01
2019-05-26T05:49:44.621Z,15.84
2019-05-26T05:54:41.087Z,15.76
2019-05-26T05:59:36.450Z,15.49
2019-05-26T06:04:32.154Z,15.44
2019-05-26T06:09:27.833Z,15.55
2019-05-26T06:14:24.814Z,15.54
2019-05-26T06:19:21.797Z,15.65
2019-05-26T06:24:17.339Z,15.77
2019-05-26T06:29:14.214Z,15.64
2019-05-26T06:34:11.069Z,15.73
2019-05-26T06:39:06.733Z,15.61
2019-05-26T06:44:02.688Z,15.84
2019-05-26T06:48:58.753Z,15.88
2019-05-26T06:53:55.882Z,16.02
2019-05-26T06:58:52.740Z,16.10
2019-05-26T07:03:48.604Z,16.33
2019-05-26T07:08:44.740Z,16.38
2019-05-26T07:13:40.677Z,16.24
2019-05-26T07:18:36.428Z,16.17
2019-05-26T07:23:34.287Z,16.39
2019-05-26T07:28:30.787Z,16.83
2019-05-26T07:33:27.146Z,17.06
2019-05-26T07:38:24.196Z,16.96
2019-05-26T07:43:19.872Z,17.14
2019-05-26T07:48:16.649Z,17.22
2019-05-26T07:53:12.087Z,17.29
2019-05-26T07:58:07.519Z,17.27
2019-05-26T08:03:03.365Z,17.23
2019-05-26T08:08:11.995Z,17.27
2019-05-26T08:12:58.844Z,17.30
2019-05-26T08:17:54.992Z,17.41
2019-05-26T08:22:52.083Z,17.60
2019-05-26T08:27:48.751Z,17.63
2019-05-26T08:32:44.934Z,17.89
2019-05-26T08:37:41.168Z,17.89
2019-05-26T08:42:44.518Z,17.98
2019-05-26T08:47:38.069Z,18.04
2019-05-26T08:52:33.925Z,18.08
2019-05-26T08:57:30.045Z,18.05
2019-05-26T09:02:26.066Z,18.16
2019-05-26T09:07:21.926Z,18.16
2019-05-26T09:12:18.220Z,18.18
2019-05-26T09:17:14.367Z,18.43
2019-05-26T09:22:11.451Z,18.56
2019-05-26T09:27:07.581Z,18.77
2019-05-26T09:32:04.834Z,19.08
2019-05-26T09:37:02.340Z,19.34
2019-05-26T09:41:58.310Z,19.56
2019-05-26T09:46:54.596Z,19.67
2019-05-26T09:51:51.392Z,19.69
2019-05-26T09:56:47.523Z,20.02
2019-05-26T10:01:43.542Z,19.99
2019-05-26T10:06:39.703Z,20.26
2019-05-26T10:11:36.798Z,20.25
2019-05-26T10:16:32.783Z,20.55
2019-05-26T10:21:28.738Z,20.51
2019-05-26T10:26:25.723Z,20.32
2019-05-26T10:31:21.242Z,20.51
2019-05-26T10:36:17.409Z,20.69
2019-05-26T10:41:13.331Z,20.47
2019-05-26T10:46:09.207Z,20.39
2019-05-26T10:51:07.006Z,20.60
2019-05-26T10:56:02.934Z,20.87
2019-05-26T11:00:59.407Z,20.99
2019-05-26T11:05:56.783Z,21.24
2019-05-26T11:10:53.430Z,21.40
2019-05-26T11:15:50.246Z,21.50
2019-05-26T11:20:46.314Z,21.69
2019-05-26T11:25:42.094Z,21.46
2019-05-26T11:30:38.306Z,21.66
2019-05-26T11:35:34.883Z,21.48
2019-05-26T11:40:31.999Z,21.62
2019-05-26T11:45:27.776Z,21.75
2019-05-26T11:50:24.295Z,21.82
2019-05-26T11:55:20.135Z,21.89
2019-05-26T12:00:16.173Z,21.99
2019-05-26T12:05:12.327Z,22.23
2019-05-26T12:10:12.956Z,22.11
2019-05-26T12:15:09.206Z,22.25
2019-05-26T12:20:05.542Z,22.33
2019-05-26T12:25:01.202Z,22.26
2019-05-26T12:29:57.210Z,22.26
2019-05-26T12:34:53.319Z,22.45
2019-05-26T12:39:48.899Z,22.36
2019-05-26T12:44:49.725Z,22.38
2019-05-26T12:49:44.663Z,22.36
2019-05-26T12:54:40.706Z,22.48
2019-05-26T12:59:37.033Z,22.47
2019-05-26T13:04:33.319Z,22.78
2019-05-26T13:09:29.988Z,22.90
2019-05-26T13:14:27.195Z,22.99
2019-05-26T13:19:23.509Z,23.09
2019-05-26T13:24:19.448Z,22.88
2019-05-26T13:29:15.431Z,22.66
2019-05-26T13:34:12.410Z,22.57
2019-05-26T13:39:08.992Z,22.63
2019-05-26T13:44:05.869Z,22.85
2019-05-26T13:49:01.460Z,22.55
2019-05-26T13:53:57.202Z,22.63
2019-05-26T13:58:53.166Z,22.80
2019-05-26T14:03:49.221Z,22.62
2019-05-26T14:08:45.967Z,22.25
2019-05-26T14:13:41.104Z,21.93
2019-05-26T14:18:36.649Z,21.73
2019-05-26T14:23:32.359Z,21.66
2019-05-26T14:28:28.238Z,21.55
2019-05-26T14:33:24.315Z,21.58
2019-05-26T14:38:21.421Z,21.69
2019-05-26T14:43:17.407Z,21.57
2019-05-26T14:48:13.632Z,21.67
2019-05-26T14:53:09.823Z,21.73
2019-05-26T14:58:15.618Z,21.83
2019-05-26T15:03:06.667Z,21.91
2019-05-26T15:08:02.486Z,21.93
2019-05-26T15:12:58.569Z,22.00
2019-05-26T15:17:54.381Z,21.96
2019-05-26T15:22:50.431Z,21.87
2019-05-26T15:27:46.795Z,21.77
2019-05-26T15:32:42.566Z,21.89
2019-05-26T15:37:38.659Z,21.87
2019-05-26T15:42:34.633Z,21.99
2019-05-26T15:47:30.773Z,21.99
2019-05-26T15:52:27.722Z,22.06
2019-05-26T15:57:23.600Z,21.98
2019-05-26T16:02:19.389Z,21.80
2019-05-26T16:07:15.477Z,21.72
2019-05-26T16:12:11.165Z,21.70
2019-05-26T16:17:07.980Z,21.80
2019-05-26T16:22:04.412Z,21.64
2019-05-26T16:27:17.860Z,21.62
2019-05-26T16:32:00.106Z,21.64
2019-05-26T16:36:55.804Z,21.52
2019-05-26T16:41:53.011Z,21.48
2019-05-26T16:46:56.587Z,21.33
2019-05-26T16:51:48.782Z,21.24
2019-05-26T16:56:45.224Z,21.27
2019-05-26T17:01:41.922Z,21.27
2019-05-26T17:06:38.614Z,21.20
2019-05-26T17:11:35.416Z,21.30
2019-05-26T17:16:31.559Z,21.27
2019-05-26T17:21:28.534Z,21.25
2019-05-26T17:26:24.184Z,21.29
2019-05-26T17:31:20.630Z,21.25
2019-05-26T17:36:16.617Z,21.14
2019-05-26T17:41:12.441Z,21.06
2019-05-26T17:46:08.192Z,21.00
2019-05-26T17:51:04.115Z,21.07
2019-05-26T17:56:00.085Z,21.17
2019-05-26T18:00:56.043Z,21.11
2019-05-26T18:05:52.310Z,21.12
2019-05-26T18:10:48.094Z,21.15
2019-05-26T18:15:44.546Z,21.18
2019-05-26T18:20:40.650Z,21.06
2019-05-26T18:25:36.597Z,21.00
2019-05-26T18:30:33.390Z,21.06
2019-05-26T18:35:28.887Z,20.95
2019-05-26T18:40:25.834Z,20.82
2019-05-26T18:45:21.572Z,20.82
2019-05-26T18:50:17.283Z,20.80
2019-05-26T18:55:13.281Z,20.70
2019-05-26T19:00:09.035Z,20.77
2019-05-26T19:05:05.295Z,20.66
2019-05-26T19:10:01.156Z,20.59
2019-05-26T19:14:57.111Z,20.51
2019-05-26T19:19:53.066Z,20.50
2019-05-26T19:24:48.808Z,20.40
2019-05-26T19:29:44.737Z,20.40
2019-05-26T19:34:40.498Z,20.36
2019-05-26T19:39:36.548Z,20.34
2019-05-26T19:44:32.373Z,20.31
2019-05-26T19:49:28.400Z,20.24
2019-05-26T19:54:24.389Z,20.26
2019-05-26T19:59:20.196Z,20.19
2019-05-26T20:04:17.197Z,20.19
2019-05-26T20:09:12.941Z,20.21
2019-05-26T20:14:08.802Z,20.21
2019-05-26T20:19:05.856Z,20.16
2019-05-26T20:24:01.523Z,20.13
2019-05-26T20:28:57.238Z,20.21
2019-05-26T20:33:53.277Z,20.13
2019-05-26T20:38:49.028Z,20.06
2019-05-26T20:43:45.433Z,20.07
2019-05-26T20:48:42.829Z,20.00
2019-05-26T20:53:40.623Z,19.99
2019-05-26T20:58:35.812Z,19.89
2019-05-26T21:03:31.678Z,19.89
2019-05-26T21:08:27.466Z,19.81
2019-05-26T21:13:23.541Z,19.70
2019-05-26T21:18:19.561Z,19.67
2019-05-26T21:23:15.542Z,19.52
2019-05-26T21:28:12.461Z,19.51
2019-05-26T21:33:08.194Z,19.49
2019-05-26T21:38:03.949Z,19.31
2019-05-26T21:42:59.836Z,19.24
2019-05-26T21:47:55.717Z,19.21
2019-05-26T21:52:52.405Z,19.15
2019-05-26T21:57:47.887Z,19.04
2019-05-26T22:02:43.987Z,18.92
2019-05-26T22:07:39.735Z,18.98
2019-05-26T22:12:36.553Z,18.92
2019-05-26T22:17:33.143Z,18.83
2019-05-26T22:22:28.531Z,18.86
2019-05-26T22:27:24.546Z,18.80
2019-05-26T22:32:20.329Z,18.77
2019-05-26T22:37:16.211Z,18.70
2019-05-26T22:42:12.401Z,18.62
2019-05-26T22:47:08.239Z,18.60
2019-05-26T22:52:04.170Z,18.52
2019-05-26T22:57:00.997Z,18.43
2019-05-26T23:01:56.557Z,18.41
2019-05-26T23:06:52.381Z,18.43
2019-05-26T23:11:49.376Z,18.40
2019-05-26T23:16:44.853Z,18.20
2019-05-26T23:21:41.597Z,18.35
2019-05-26T23:26:37.180Z,18.20
2019-05-26T23:31:34.089Z,18.19
2019-05-26T23:36:29.781Z,18.11
2019-05-26T23:41:25.588Z,17.98
2019-05-26T23:46:21.474Z,17.94
2019-05-26T23:51:17.259Z,17.90
2019-05-26T23:56:13.430Z,17.68
